sensor_id;sensor_type;location;lat;lon;timestamp;pressure;altitude;pressure_sealevel;temperature;humidity
7441;BME280;29616;51.950;8.572;2023-02-15T00:01:33;101393.53;;;0.86;100.00
7441;BME280;29616;51.950;8.572;2023-02-15T00:04:02;101399.72;;;0.88;100.00
7441;BME280;29616;51.950;8.572;2023-02-15T00:06:32;101397.28;;;0.82;100.00
7441;BME280;29616;51.950;8.572;2023-02-15T00:09:02;101395.16;;;0.90;100.00
7441;BME280;29616;51.950;8.572;2023-02-15T00:11:31;101403.50;;;1.06;100.00
7441;BME280;29616;51.950;8.572;2023-02-15T00:14:11;101405.19;;;1.08;100.00
7441;BME280;29616;51.950;8.572;2023-02-15T00:16:42;101407.69;;;1.13;100.00
7441;BME280;29616;51.950;8.572;2023-02-15T00:19:13;101397.38;;;1.02;100.00
7441;BME280;29616;51.950;8.572;2023-02-15T00:21:45;101389.13;;;0.84;100.00
7441;BME280;29616;51.950;8.572;2023-02-15T00:24:17;101399.84;;;0.85;100.00
7441;BME280;29616;51.950;8.572;2023-02-15T00:26:48;101387.34;;;0.84;100.00
7441;BME280;29616;51.950;8.572;2023-02-15T00:29:18;101370.59;;;0.76;100.00
7441;BME280;29616;51.950;8.572;2023-02-15T00:31:47;101367.09;;;0.74;100.00
7441;BME280;29616;51.950;8.572;2023-02-15T00:34:18;101390.22;;;1.01;100.00
7441;BME280;29616;51.950;8.572;2023-02-15T00:36:49;101376.44;;;0.87;100.00
7441;BME280;29616;51.950;8.572;2023-02-15T00:39:20;101390.34;;;0.98;100.00
7441;BME280;29616;51.950;8.572;2023-02-15T00:41:48;101380.88;;;0.88;100.00
7441;BME280;29616;51.950;8.572;2023-02-15T00:44:17;101371.72;;;0.71;100.00
7441;BME280;29616;51.950;8.572;2023-02-15T00:46:47;101338.94;;;0.61;100.00
7441;BME280;29616;51.950;8.572;2023-02-15T00:49:17;101373.09;;;0.81;100.00
7441;BME280;29616;51.950;8.572;2023-02-15T00:51:46;101381.06;;;0.84;100.00
7441;BME280;29616;51.950;8.572;2023-02-15T00:54:18;101377.25;;;0.89;100.00
7441;BME280;29616;51.950;8.572;2023-02-15T00:56:46;101372.75;;;0.90;100.00
7441;BME280;29616;51.950;8.572;2023-02-15T00:59:15;101375.50;;;0.88;100.00
7441;BME280;29616;51.950;8.572;2023-02-15T01:01:45;101351.06;;;0.71;100.00
7441;BME280;29616;51.950;8.572;2023-02-15T01:04:14;101371.19;;;0.84;100.00
7441;BME280;29616;51.950;8.572;2023-02-15T01:06:43;101376.78;;;0.78;100.00
7441;BME280;29616;51.950;8.572;2023-02-15T01:09:12;101374.63;;;0.88;100.00
7441;BME280;29616;51.950;8.572;2023-02-15T01:11:43;101371.00;;;0.89;100.00
7441;BME280;29616;51.950;8.572;2023-02-15T01:14:11;101370.31;;;0.84;100.00
7441;BME280;29616;51.950;8.572;2023-02-15T01:16:41;101360.59;;;0.80;100.00
7441;BME280;29616;51.950;8.572;2023-02-15T01:19:09;101365.13;;;0.79;100.00
7441;BME280;29616;51.950;8.572;2023-02-15T01:21:38;101351.66;;;0.56;100.00
7441;BME280;29616;51.950;8.572;2023-02-15T01:24:11;101364.31;;;0.54;100.00
7441;BME280;29616;51.950;8.572;2023-02-15T01:26:42;101355.06;;;0.61;100.00
7441;BME280;29616;51.950;8.572;2023-02-15T01:29:12;101355.06;;;0.61;100.00
7441;BME280;29616;51.950;8.572;2023-02-15T01:31:41;101353.06;;;0.66;100.00
7441;BME280;29616;51.950;8.572;2023-02-15T01:34:13;101338.78;;;0.64;100.00
7441;BME280;29616;51.950;8.572;2023-02-15T01:36:42;101349.31;;;0.70;100.00
7441;BME280;29616;51.950;8.572;2023-02-15T01:39:14;101337.06;;;0.63;100.00
7441;BME280;29616;51.950;8.572;2023-02-15T01:41:44;101337.28;;;0.57;100.00
7441;BME280;29616;51.950;8.572;2023-02-15T01:44:47;101318.25;;;0.40;100.00
7441;BME280;29616;51.950;8.572;2023-02-15T01:47:21;101316.72;;;0.33;100.00
7441;BME280;29616;51.950;8.572;2023-02-15T01:50:02;101337.09;;;0.40;100.00
7441;BME280;29616;51.950;8.572;2023-02-15T01:52:34;101333.44;;;0.41;100.00
7441;BME280;29616;51.950;8.572;2023-02-15T01:55:04;101336.09;;;0.42;100.00
7441;BME280;29616;51.950;8.572;2023-02-15T01:57:35;101342.75;;;0.55;100.00
7441;BME280;29616;51.950;8.572;2023-02-15T02:00:07;101336.47;;;0.55;100.00
7441;BME280;29616;51.950;8.572;2023-02-15T02:02:39;101332.66;;;0.60;100.00
7441;BME280;29616;51.950;8.572;2023-02-15T02:05:10;101329.09;;;0.60;100.00
7441;BME280;29616;51.950;8.572;2023-02-15T02:07:42;101322.06;;;0.56;100.00
7441;BME280;29616;51.950;8.572;2023-02-15T02:10:16;101323.38;;;0.46;100.00
7441;BME280;29616;51.950;8.572;2023-02-15T02:12:50;101324.91;;;0.53;100.00
7441;BME280;29616;51.950;8.572;2023-02-15T02:15:28;101313.84;;;0.37;100.00
7441;BME280;29616;51.950;8.572;2023-02-15T02:18:10;101323.97;;;0.31;100.00
7441;BME280;29616;51.950;8.572;2023-02-15T02:24:11;101312.06;;;0.15;100.00
7441;BME280;29616;51.950;8.572;2023-02-15T02:27:21;101311.25;;;0.13;100.00
7441;BME280;29616;51.950;8.572;2023-02-15T02:30:49;101304.56;;;-0.01;100.00
7441;BME280;29616;51.950;8.572;2023-02-15T02:33:38;101309.69;;;0.06;100.00
7441;BME280;29616;51.950;8.572;2023-02-15T02:36:19;101310.28;;;0.14;100.00
7441;BME280;29616;51.950;8.572;2023-02-15T02:39:06;101287.66;;;0.19;100.00
7441;BME280;29616;51.950;8.572;2023-02-15T02:41:43;101299.84;;;0.29;100.00
7441;BME280;29616;51.950;8.572;2023-02-15T02:44:21;101294.22;;;0.12;100.00
7441;BME280;29616;51.950;8.572;2023-02-15T02:46:53;101282.22;;;-0.03;100.00
7441;BME280;29616;51.950;8.572;2023-02-15T02:49:35;101291.25;;;-0.04;100.00
7441;BME280;29616;51.950;8.572;2023-02-15T02:55:20;101294.84;;;-0.05;100.00
7441;BME280;29616;51.950;8.572;2023-02-15T02:57:54;101274.34;;;-0.07;100.00
7441;BME280;29616;51.950;8.572;2023-02-15T03:00:29;101279.31;;;0.04;100.00
7441;BME280;29616;51.950;8.572;2023-02-15T03:03:03;101284.06;;;-0.03;100.00
7441;BME280;29616;51.950;8.572;2023-02-15T03:05:35;101263.09;;;-0.17;100.00
7441;BME280;29616;51.950;8.572;2023-02-15T03:08:08;101281.00;;;-0.17;100.00
7441;BME280;29616;51.950;8.572;2023-02-15T03:10:40;101272.63;;;-0.08;100.00
7441;BME280;29616;51.950;8.572;2023-02-15T03:13:10;101280.81;;;-0.13;100.00
7441;BME280;29616;51.950;8.572;2023-02-15T03:15:39;101270.78;;;-0.08;100.00
7441;BME280;29616;51.950;8.572;2023-02-15T03:18:32;101267.25;;;-0.08;100.00
7441;BME280;29616;51.950;8.572;2023-02-15T03:21:05;101254.22;;;-0.19;100.00
7441;BME280;29616;51.950;8.572;2023-02-15T03:23:36;101264.97;;;-0.19;100.00
7441;BME280;29616;51.950;8.572;2023-02-15T03:26:07;101270.03;;;-0.11;100.00
7441;BME280;29616;51.950;8.572;2023-02-15T03:28:43;101264.69;;;-0.13;100.00
7441;BME280;29616;51.950;8.572;2023-02-15T03:31:15;101269.09;;;-0.10;100.00
7441;BME280;29616;51.950;8.572;2023-02-15T03:33:53;101257.81;;;-0.20;100.00
7441;BME280;29616;51.950;8.572;2023-02-15T03:36:30;101261.19;;;-0.15;100.00
7441;BME280;29616;51.950;8.572;2023-02-15T03:39:12;101262.50;;;-0.25;100.00
7441;BME280;29616;51.950;8.572;2023-02-15T03:41:50;101259.63;;;-0.20;100.00
7441;BME280;29616;51.950;8.572;2023-02-15T03:44:27;101254.72;;;-0.32;100.00
7441;BME280;29616;51.950;8.572;2023-02-15T03:47:04;101262.41;;;-0.23;100.00
7441;BME280;29616;51.950;8.572;2023-02-15T03:49:41;101266.91;;;-0.24;100.00
7441;BME280;29616;51.950;8.572;2023-02-15T03:52:15;101267.06;;;-0.27;100.00
7441;BME280;29616;51.950;8.572;2023-02-15T03:54:44;101256.91;;;-0.43;100.00
7441;BME280;29616;51.950;8.572;2023-02-15T03:57:18;101248.09;;;-0.47;100.00
7441;BME280;29616;51.950;8.572;2023-02-15T04:00:11;101256.44;;;-0.31;100.00
7441;BME280;29616;51.950;8.572;2023-02-15T04:03:23;101228.84;;;-0.35;100.00
7441;BME280;29616;51.950;8.572;2023-02-15T04:05:55;101241.09;;;-0.28;100.00
7441;BME280;29616;51.950;8.572;2023-02-15T04:08:25;101240.78;;;-0.19;100.00
7441;BME280;29616;51.950;8.572;2023-02-15T04:11:16;101226.84;;;-0.30;100.00
7441;BME280;29616;51.950;8.572;2023-02-15T04:13:44;101232.06;;;-0.25;100.00
7441;BME280;29616;51.950;8.572;2023-02-15T04:16:13;101234.91;;;-0.30;100.00
7441;BME280;29616;51.950;8.572;2023-02-15T04:18:42;101219.53;;;-0.49;100.00
7441;BME280;29616;51.950;8.572;2023-02-15T04:21:30;101234.47;;;-0.42;100.00
7441;BME280;29616;51.950;8.572;2023-02-15T04:24:19;101238.31;;;-0.49;100.00
7441;BME280;29616;51.950;8.572;2023-02-15T04:27:06;101239.84;;;-0.42;100.00
7441;BME280;29616;51.950;8.572;2023-02-15T04:29:37;101221.59;;;-0.56;100.00
7441;BME280;29616;51.950;8.572;2023-02-15T04:32:06;101233.94;;;-0.52;100.00
7441;BME280;29616;51.950;8.572;2023-02-15T04:34:35;101236.81;;;-0.56;100.00
7441;BME280;29616;51.950;8.572;2023-02-15T04:37:04;101232.31;;;-0.56;100.00
7441;BME280;29616;51.950;8.572;2023-02-15T04:39:35;101206.78;;;-0.68;100.00
7441;BME280;29616;51.950;8.572;2023-02-15T04:42:03;101234.47;;;-0.42;100.00
7441;BME280;29616;51.950;8.572;2023-02-15T04:44:34;101208.84;;;-0.51;100.00
7441;BME280;29616;51.950;8.572;2023-02-15T04:47:02;101225.50;;;-0.41;100.00
7441;BME280;29616;51.950;8.572;2023-02-15T04:49:32;101215.75;;;-0.44;100.00
7441;BME280;29616;51.950;8.572;2023-02-15T04:52:00;101216.03;;;-0.51;100.00
7441;BME280;29616;51.950;8.572;2023-02-15T04:54:30;101213.56;;;-0.57;100.00
7441;BME280;29616;51.950;8.572;2023-02-15T04:57:01;101223.22;;;-0.52;100.00
7441;BME280;29616;51.950;8.572;2023-02-15T04:59:30;101201.22;;;-0.63;100.00
7441;BME280;29616;51.950;8.572;2023-02-15T05:02:00;101208.97;;;-0.54;100.00
7441;BME280;29616;51.950;8.572;2023-02-15T05:04:29;101182.78;;;-0.72;100.00
7441;BME280;29616;51.950;8.572;2023-02-15T05:06:58;101204.59;;;-0.56;100.00
7441;BME280;29616;51.950;8.572;2023-02-15T05:09:29;101195.75;;;-0.60;100.00
7441;BME280;29616;51.950;8.572;2023-02-15T05:11:58;101208.38;;;-0.62;100.00
7441;BME280;29616;51.950;8.572;2023-02-15T05:14:29;101205.56;;;-0.59;100.00
7441;BME280;29616;51.950;8.572;2023-02-15T05:16:58;101211.88;;;-0.60;100.00
7441;BME280;29616;51.950;8.572;2023-02-15T05:19:29;101215.31;;;-0.56;100.00
7441;BME280;29616;51.950;8.572;2023-02-15T05:21:58;101210.97;;;-0.61;100.00
7441;BME280;29616;51.950;8.572;2023-02-15T05:24:29;101203.88;;;-0.62;100.00
7441;BME280;29616;51.950;8.572;2023-02-15T05:27:16;101180.50;;;-0.83;100.00
7441;BME280;29616;51.950;8.572;2023-02-15T05:30:05;101188.28;;;-0.75;100.00
7441;BME280;29616;51.950;8.572;2023-02-15T05:32:38;101202.34;;;-0.69;100.00
7441;BME280;29616;51.950;8.572;2023-02-15T05:35:13;101204.97;;;-0.67;100.00
7441;BME280;29616;51.950;8.572;2023-02-15T05:37:43;101184.88;;;-0.80;100.00
7441;BME280;29616;51.950;8.572;2023-02-15T05:40:12;101196.03;;;-0.68;100.00
7441;BME280;29616;51.950;8.572;2023-02-15T05:42:41;101181.34;;;-0.82;100.00
7441;BME280;29616;51.950;8.572;2023-02-15T05:45:11;101200.09;;;-0.81;100.00
7441;BME280;29616;51.950;8.572;2023-02-15T05:47:39;101200.03;;;-0.79;100.00
7441;BME280;29616;51.950;8.572;2023-02-15T05:50:09;101203.44;;;-0.74;100.00
7441;BME280;29616;51.950;8.572;2023-02-15T05:52:39;101201.63;;;-0.74;100.00
7441;BME280;29616;51.950;8.572;2023-02-15T05:55:08;101196.44;;;-0.78;100.00
7441;BME280;29616;51.950;8.572;2023-02-15T05:57:36;101196.84;;;-0.90;100.00
7441;BME280;29616;51.950;8.572;2023-02-15T06:00:08;101185.50;;;-0.98;100.00
7441;BME280;29616;51.950;8.572;2023-02-15T06:02:41;101187.38;;;-1.00;100.00
7441;BME280;29616;51.950;8.572;2023-02-15T06:05:12;101196.25;;;-0.98;100.00
7441;BME280;29616;51.950;8.572;2023-02-15T06:07:43;101185.75;;;-1.04;100.00
7441;BME280;29616;51.950;8.572;2023-02-15T06:10:12;101196.09;;;-0.94;100.00
7441;BME280;29616;51.950;8.572;2023-02-15T06:12:40;101190.06;;;-1.00;100.00
7441;BME280;29616;51.950;8.572;2023-02-15T06:15:09;101196.16;;;-0.95;100.00
7441;BME280;29616;51.950;8.572;2023-02-15T06:17:37;101171.19;;;-0.97;100.00
7441;BME280;29616;51.950;8.572;2023-02-15T06:20:09;101190.19;;;-0.79;100.00
7441;BME280;29616;51.950;8.572;2023-02-15T06:22:37;101185.78;;;-0.81;100.00
7441;BME280;29616;51.950;8.572;2023-02-15T06:25:05;101183.31;;;-0.87;100.00
7441;BME280;29616;51.950;8.572;2023-02-15T06:27:40;101185.38;;;-0.94;100.00
7441;BME280;29616;51.950;8.572;2023-02-15T06:30:11;101181.00;;;-0.96;100.00
7441;BME280;29616;51.950;8.572;2023-02-15T06:32:39;101189.69;;;-0.90;100.00
7441;BME280;29616;51.950;8.572;2023-02-15T06:35:10;101190.56;;;-0.89;100.00
7441;BME280;29616;51.950;8.572;2023-02-15T06:37:39;101175.66;;;-0.98;100.00
7441;BME280;29616;51.950;8.572;2023-02-15T06:40:10;101202.72;;;-0.79;100.00
7441;BME280;29616;51.950;8.572;2023-02-15T06:42:39;101202.00;;;-0.84;100.00
7441;BME280;29616;51.950;8.572;2023-02-15T06:45:11;101182.59;;;-0.91;100.00
7441;BME280;29616;51.950;8.572;2023-02-15T06:47:40;101187.00;;;-0.90;100.00
7441;BME280;29616;51.950;8.572;2023-02-15T06:50:12;101173.03;;;-0.99;100.00
7441;BME280;29616;51.950;8.572;2023-02-15T06:52:41;101186.56;;;-0.78;100.00
7441;BME280;29616;51.950;8.572;2023-02-15T06:55:11;101170.00;;;-0.90;100.00
7441;BME280;29616;51.950;8.572;2023-02-15T06:57:39;101195.38;;;-0.74;100.00
7441;BME280;29616;51.950;8.572;2023-02-15T07:00:11;101183.59;;;-0.70;100.00
7441;BME280;29616;51.950;8.572;2023-02-15T07:02:40;101182.44;;;-0.63;100.00
7441;BME280;29616;51.950;8.572;2023-02-15T07:05:08;101186.78;;;-0.59;100.00
7441;BME280;29616;51.950;8.572;2023-02-15T07:07:39;101197.94;;;-0.46;100.00
7441;BME280;29616;51.950;8.572;2023-02-15T07:10:09;101193.19;;;-0.40;100.00
7441;BME280;29616;51.950;8.572;2023-02-15T07:12:37;101191.25;;;-0.35;100.00
7441;BME280;29616;51.950;8.572;2023-02-15T07:15:10;101185.69;;;-0.30;100.00
7441;BME280;29616;51.950;8.572;2023-02-15T07:17:39;101185.44;;;-0.24;100.00
7441;BME280;29616;51.950;8.572;2023-02-15T07:20:12;101200.91;;;-0.08;100.00
7441;BME280;29616;51.950;8.572;2023-02-15T07:22:42;101189.88;;;0.00;100.00
7441;BME280;29616;51.950;8.572;2023-02-15T07:25:12;101179.63;;;0.10;100.00
7441;BME280;29616;51.950;8.572;2023-02-15T07:27:41;101164.09;;;0.16;100.00
7441;BME280;29616;51.950;8.572;2023-02-15T07:30:14;101174.75;;;0.41;100.00
7441;BME280;29616;51.950;8.572;2023-02-15T07:32:45;101152.91;;;0.48;100.00
7441;BME280;29616;51.950;8.572;2023-02-15T07:35:32;101177.72;;;0.97;100.00
7441;BME280;29616;51.950;8.572;2023-02-15T07:38:02;101179.97;;;1.28;100.00
7441;BME280;29616;51.950;8.572;2023-02-15T07:40:32;101179.13;;;1.46;100.00
7441;BME280;29616;51.950;8.572;2023-02-15T07:43:00;101172.91;;;1.82;100.00
7441;BME280;29616;51.950;8.572;2023-02-15T07:45:30;101183.41;;;2.07;100.00
7441;BME280;29616;51.950;8.572;2023-02-15T07:48:00;101170.41;;;2.34;100.00
7441;BME280;29616;51.950;8.572;2023-02-15T07:50:30;101151.19;;;3.10;100.00
7441;BME280;29616;51.950;8.572;2023-02-15T07:53:00;101159.91;;;4.74;100.00
7441;BME280;29616;51.950;8.572;2023-02-15T07:55:31;101165.75;;;6.13;100.00
7441;BME280;29616;51.950;8.572;2023-02-15T07:58:01;101156.63;;;7.20;100.00
7441;BME280;29616;51.950;8.572;2023-02-15T08:00:32;101152.19;;;7.70;100.00
7441;BME280;29616;51.950;8.572;2023-02-15T08:03:23;101141.31;;;8.68;100.00
7441;BME280;29616;51.950;8.572;2023-02-15T08:05:57;101134.91;;;9.03;100.00
7441;BME280;29616;51.950;8.572;2023-02-15T08:08:27;101139.53;;;8.79;100.00
7441;BME280;29616;51.950;8.572;2023-02-15T08:11:05;101126.03;;;9.24;100.00
7441;BME280;29616;51.950;8.572;2023-02-15T08:13:54;101132.38;;;9.24;100.00
7441;BME280;29616;51.950;8.572;2023-02-15T08:16:24;101118.78;;;9.46;100.00
7441;BME280;29616;51.950;8.572;2023-02-15T08:18:55;101129.00;;;10.11;100.00
7441;BME280;29616;51.950;8.572;2023-02-15T08:21:25;101112.13;;;9.95;100.00
7441;BME280;29616;51.950;8.572;2023-02-15T08:23:55;101114.75;;;10.18;100.00
7441;BME280;29616;51.950;8.572;2023-02-15T08:26:27;101125.03;;;10.48;100.00
7441;BME280;29616;51.950;8.572;2023-02-15T08:28:57;101119.56;;;9.70;100.00
7441;BME280;29616;51.950;8.572;2023-02-15T08:31:28;101106.53;;;10.07;100.00
7441;BME280;29616;51.950;8.572;2023-02-15T08:33:58;101110.22;;;10.51;100.00
7441;BME280;29616;51.950;8.572;2023-02-15T08:36:30;101122.47;;;10.67;100.00
7441;BME280;29616;51.950;8.572;2023-02-15T08:39:03;101105.88;;;11.53;100.00
7441;BME280;29616;51.950;8.572;2023-02-15T08:41:37;101087.03;;;10.77;100.00
7441;BME280;29616;51.950;8.572;2023-02-15T08:44:08;101114.06;;;10.91;100.00
7441;BME280;29616;51.950;8.572;2023-02-15T08:46:39;101104.88;;;11.54;100.00
7441;BME280;29616;51.950;8.572;2023-02-15T08:49:08;101125.44;;;11.48;100.00
7441;BME280;29616;51.950;8.572;2023-02-15T08:51:38;101110.97;;;10.42;100.00
7441;BME280;29616;51.950;8.572;2023-02-15T08:54:09;101103.28;;;11.31;100.00
7441;BME280;29616;51.950;8.572;2023-02-15T08:56:41;101108.22;;;12.58;100.00
7441;BME280;29616;51.950;8.572;2023-02-15T08:59:14;101085.53;;;13.52;100.00
7441;BME280;29616;51.950;8.572;2023-02-15T09:01:45;101088.78;;;13.09;100.00
7441;BME280;29616;51.950;8.572;2023-02-15T09:04:14;101086.56;;;13.31;100.00
7441;BME280;29616;51.950;8.572;2023-02-15T09:06:48;101080.94;;;12.95;100.00
7441;BME280;29616;51.950;8.572;2023-02-15T09:09:18;101100.81;;;12.49;100.00
7441;BME280;29616;51.950;8.572;2023-02-15T09:11:51;101099.59;;;13.10;100.00
7441;BME280;29616;51.950;8.572;2023-02-15T09:14:27;101083.13;;;13.10;100.00
7441;BME280;29616;51.950;8.572;2023-02-15T09:16:57;101101.63;;;13.08;100.00
7441;BME280;29616;51.950;8.572;2023-02-15T09:19:25;101093.47;;;14.01;96.29
7441;BME280;29616;51.950;8.572;2023-02-15T09:21:53;101103.78;;;14.26;98.94
7441;BME280;29616;51.950;8.572;2023-02-15T09:24:22;101112.53;;;15.37;89.28
7441;BME280;29616;51.950;8.572;2023-02-15T09:26:51;101105.63;;;15.15;86.26
7441;BME280;29616;51.950;8.572;2023-02-15T09:29:20;101092.56;;;15.53;77.75
7441;BME280;29616;51.950;8.572;2023-02-15T09:31:51;101098.94;;;15.79;74.15
7441;BME280;29616;51.950;8.572;2023-02-15T09:34:22;101093.13;;;14.86;89.94
7441;BME280;29616;51.950;8.572;2023-02-15T09:36:51;101086.38;;;13.98;85.45
7441;BME280;29616;51.950;8.572;2023-02-15T09:39:22;101081.19;;;15.38;82.14
7441;BME280;29616;51.950;8.572;2023-02-15T09:45:13;101097.69;;;15.73;69.72
7441;BME280;29616;51.950;8.572;2023-02-15T09:48:04;101103.44;;;14.84;85.49
7441;BME280;29616;51.950;8.572;2023-02-15T09:50:43;101092.59;;;14.37;83.72
7441;BME280;29616;51.950;8.572;2023-02-15T09:53:33;101095.88;;;13.77;88.17
7441;BME280;29616;51.950;8.572;2023-02-15T09:56:14;101084.81;;;13.50;92.35
7441;BME280;29616;51.950;8.572;2023-02-15T09:58:57;101082.97;;;14.14;92.76
7441;BME280;29616;51.950;8.572;2023-02-15T10:01:39;101053.09;;;14.56;88.84
7441;BME280;29616;51.950;8.572;2023-02-15T10:04:34;101077.09;;;14.81;87.20
7441;BME280;29616;51.950;8.572;2023-02-15T10:07:20;101065.69;;;14.94;76.07
7441;BME280;29616;51.950;8.572;2023-02-15T10:10:05;101071.84;;;14.16;80.82
7441;BME280;29616;51.950;8.572;2023-02-15T10:13:00;101065.38;;;14.07;82.98
7441;BME280;29616;51.950;8.572;2023-02-15T10:15:56;101082.81;;;14.52;89.48
7441;BME280;29616;51.950;8.572;2023-02-15T10:18:53;101088.25;;;14.80;80.30
7441;BME280;29616;51.950;8.572;2023-02-15T10:21:30;101093.06;;;15.13;78.76
7441;BME280;29616;51.950;8.572;2023-02-15T10:24:36;101062.97;;;15.81;76.25
7441;BME280;29616;51.950;8.572;2023-02-15T10:27:20;101085.47;;;16.02;70.81
7441;BME280;29616;51.950;8.572;2023-02-15T10:30:05;101078.31;;;16.67;70.96
7441;BME280;29616;51.950;8.572;2023-02-15T10:32:50;101078.88;;;15.95;65.81
7441;BME280;29616;51.950;8.572;2023-02-15T10:35:29;101073.00;;;15.03;75.46
7441;BME280;29616;51.950;8.572;2023-02-15T10:38:13;101077.22;;;15.15;76.06
7441;BME280;29616;51.950;8.572;2023-02-15T10:41:00;101068.53;;;14.84;71.60
7441;BME280;29616;51.950;8.572;2023-02-15T10:44:07;101062.88;;;16.48;68.39
7441;BME280;29616;51.950;8.572;2023-02-15T10:47:00;101066.47;;;16.32;61.84
7441;BME280;29616;51.950;8.572;2023-02-15T10:49:53;101055.38;;;16.16;67.84
7441;BME280;29616;51.950;8.572;2023-02-15T10:52:37;101062.13;;;16.72;64.24
7441;BME280;29616;51.950;8.572;2023-02-15T10:55:16;101058.88;;;17.01;61.72
7441;BME280;29616;51.950;8.572;2023-02-15T10:57:59;101055.88;;;15.35;64.36
7441;BME280;29616;51.950;8.572;2023-02-15T11:00:38;101055.97;;;15.68;68.96
7441;BME280;29616;51.950;8.572;2023-02-15T11:03:26;101051.72;;;16.16;62.28
7441;BME280;29616;51.950;8.572;2023-02-15T11:06:04;101044.31;;;15.74;68.69
7441;BME280;29616;51.950;8.572;2023-02-15T11:08:37;101054.94;;;16.45;65.98
7441;BME280;29616;51.950;8.572;2023-02-15T11:11:08;101046.91;;;16.10;65.84
7441;BME280;29616;51.950;8.572;2023-02-15T11:13:40;101043.78;;;16.13;66.33
7441;BME280;29616;51.950;8.572;2023-02-15T11:16:16;101000.81;;;15.94;62.49
7441;BME280;29616;51.950;8.572;2023-02-15T11:18:50;101038.66;;;16.68;63.29
7441;BME280;29616;51.950;8.572;2023-02-15T11:21:27;101041.81;;;16.89;60.11
7441;BME280;29616;51.950;8.572;2023-02-15T11:23:56;101054.56;;;17.14;61.29
7441;BME280;29616;51.950;8.572;2023-02-15T11:26:31;101044.88;;;16.20;66.80
7441;BME280;29616;51.950;8.572;2023-02-15T11:29:08;101037.00;;;16.41;66.90
7441;BME280;29616;51.950;8.572;2023-02-15T11:31:44;101036.63;;;15.60;68.64
7441;BME280;29616;51.950;8.572;2023-02-15T11:34:19;101041.00;;;15.45;75.86
7441;BME280;29616;51.950;8.572;2023-02-15T11:36:52;101012.59;;;16.04;67.53
7441;BME280;29616;51.950;8.572;2023-02-15T11:39:26;101034.88;;;17.25;63.01
7441;BME280;29616;51.950;8.572;2023-02-15T11:42:13;101029.31;;;17.74;62.57
7441;BME280;29616;51.950;8.572;2023-02-15T11:44:59;101036.16;;;16.41;66.49
7441;BME280;29616;51.950;8.572;2023-02-15T11:47:31;101043.44;;;15.74;72.50
7441;BME280;29616;51.950;8.572;2023-02-15T11:49:59;101029.97;;;15.02;81.32
7441;BME280;29616;51.950;8.572;2023-02-15T11:52:29;101036.09;;;15.13;78.61
7441;BME280;29616;51.950;8.572;2023-02-15T11:55:00;101030.69;;;15.73;79.04
7441;BME280;29616;51.950;8.572;2023-02-15T11:57:37;101027.47;;;16.19;71.89
7441;BME280;29616;51.950;8.572;2023-02-15T12:00:16;101028.34;;;16.94;73.38
7441;BME280;29616;51.950;8.572;2023-02-15T12:02:53;101017.13;;;17.04;68.21
7441;BME280;29616;51.950;8.572;2023-02-15T12:05:25;101006.25;;;16.94;68.37
7441;BME280;29616;51.950;8.572;2023-02-15T12:08:01;101018.50;;;17.32;66.40
7441;BME280;29616;51.950;8.572;2023-02-15T12:10:38;101011.22;;;17.63;63.79
7441;BME280;29616;51.950;8.572;2023-02-15T12:13:11;100998.16;;;16.92;64.11
7441;BME280;29616;51.950;8.572;2023-02-15T12:15:44;101003.50;;;17.10;66.14
7441;BME280;29616;51.950;8.572;2023-02-15T12:18:24;100991.88;;;17.55;63.64
7441;BME280;29616;51.950;8.572;2023-02-15T12:20:59;100983.94;;;17.44;63.23
7441;BME280;29616;51.950;8.572;2023-02-15T12:23:33;100993.03;;;18.15;61.95
7441;BME280;29616;51.950;8.572;2023-02-15T12:26:09;100994.41;;;18.20;60.78
7441;BME280;29616;51.950;8.572;2023-02-15T12:28:41;101002.72;;;18.20;60.88
7441;BME280;29616;51.950;8.572;2023-02-15T12:31:20;100988.91;;;18.96;58.65
7441;BME280;29616;51.950;8.572;2023-02-15T12:33:53;100986.66;;;17.68;61.24
7441;BME280;29616;51.950;8.572;2023-02-15T12:36:26;100982.41;;;17.96;60.97
7441;BME280;29616;51.950;8.572;2023-02-15T12:39:19;100988.34;;;19.00;57.13
7441;BME280;29616;51.950;8.572;2023-02-15T12:42:13;100978.84;;;19.84;56.13
7441;BME280;29616;51.950;8.572;2023-02-15T12:44:53;100959.00;;;20.16;54.65
7441;BME280;29616;51.950;8.572;2023-02-15T12:47:23;100953.50;;;19.58;55.94
7441;BME280;29616;51.950;8.572;2023-02-15T12:50:22;100970.88;;;19.00;55.51
7441;BME280;29616;51.950;8.572;2023-02-15T12:53:07;100957.94;;;18.92;57.08
7441;BME280;29616;51.950;8.572;2023-02-15T12:55:37;100957.00;;;18.62;55.68
7441;BME280;29616;51.950;8.572;2023-02-15T12:58:18;100965.25;;;18.09;57.47
7441;BME280;29616;51.950;8.572;2023-02-15T13:00:47;100956.69;;;19.17;56.65
7441;BME280;29616;51.950;8.572;2023-02-15T13:03:20;100964.00;;;20.06;54.14
7441;BME280;29616;51.950;8.572;2023-02-15T13:05:54;100934.22;;;20.15;52.38
7441;BME280;29616;51.950;8.572;2023-02-15T13:08:30;100932.59;;;19.32;54.82
7441;BME280;29616;51.950;8.572;2023-02-15T13:11:03;100952.78;;;19.26;54.73
7441;BME280;29616;51.950;8.572;2023-02-15T13:13:35;100945.75;;;19.01;53.61
7441;BME280;29616;51.950;8.572;2023-02-15T13:16:10;100939.84;;;18.36;54.72
7441;BME280;29616;51.950;8.572;2023-02-15T13:18:44;100941.78;;;18.58;55.20
7441;BME280;29616;51.950;8.572;2023-02-15T13:21:16;100944.00;;;19.00;54.85
7441;BME280;29616;51.950;8.572;2023-02-15T13:23:49;100915.50;;;18.77;53.53
7441;BME280;29616;51.950;8.572;2023-02-15T13:26:25;100933.19;;;19.13;53.08
7441;BME280;29616;51.950;8.572;2023-02-15T13:28:56;100934.72;;;18.79;54.91
7441;BME280;29616;51.950;8.572;2023-02-15T13:31:28;100919.16;;;19.88;53.37
7441;BME280;29616;51.950;8.572;2023-02-15T13:34:09;100932.84;;;19.46;53.09
7441;BME280;29616;51.950;8.572;2023-02-15T13:36:48;100935.03;;;18.98;55.34
7441;BME280;29616;51.950;8.572;2023-02-15T13:39:26;100933.19;;;18.76;56.20
7441;BME280;29616;51.950;8.572;2023-02-15T13:42:05;100928.22;;;18.86;54.60
7441;BME280;29616;51.950;8.572;2023-02-15T13:45:01;100914.97;;;18.96;55.26